sensor_id;sensor_type;location;lat;lon;timestamp;pressure;altitude;pressure_sealevel;temperature;humidity
12799;BME280;19250;42.646;26.980;2023-05-29T00:01:07;98569.00;;;19.35;100.00
12799;BME280;19250;42.646;26.980;2023-05-29T00:03:35;98568.84;;;19.48;100.00
12799;BME280;19250;42.646;26.980;2023-05-29T00:06:02;98575.09;;;19.67;100.00
12799;BME280;19250;42.646;26.980;2023-05-29T00:08:31;98566.91;;;19.55;100.00
12799;BME280;19250;42.646;26.980;2023-05-29T00:10:58;98576.22;;;19.60;100.00
12799;BME280;19250;42.646;26.980;2023-05-29T00:13:25;98565.53;;;19.65;100.00
12799;BME280;19250;42.646;26.980;2023-05-29T00:15:52;98575.78;;;19.63;100.00
12799;BME280;19250;42.646;26.980;2023-05-29T00:18:18;98575.41;;;19.59;100.00
12799;BME280;19250;42.646;26.980;2023-05-29T00:20:47;98571.72;;;19.53;100.00
12799;BME280;19250;42.646;26.980;2023-05-29T00:23:14;98570.34;;;19.26;100.00
12799;BME280;19250;42.646;26.980;2023-05-29T00:25:41;98571.25;;;19.20;100.00
12799;BME280;19250;42.646;26.980;2023-05-29T00:28:09;98570.84;;;19.41;100.00
12799;BME280;19250;42.646;26.980;2023-05-29T00:30:37;98584.19;;;19.54;100.00
12799;BME280;19250;42.646;26.980;2023-05-29T00:33:04;98584.16;;;19.36;100.00
12799;BME280;19250;42.646;26.980;2023-05-29T00:35:31;98581.47;;;19.54;100.00
12799;BME280;19250;42.646;26.980;2023-05-29T00:37:59;98585.38;;;19.59;100.00
12799;BME280;19250;42.646;26.980;2023-05-29T00:40:26;98581.94;;;19.51;100.00
12799;BME280;19250;42.646;26.980;2023-05-29T00:42:53;98584.41;;;19.53;100.00
12799;BME280;19250;42.646;26.980;2023-05-29T00:45:20;98581.16;;;19.26;100.00
12799;BME280;19250;42.646;26.980;2023-05-29T00:47:46;98574.00;;;19.14;100.00
12799;BME280;19250;42.646;26.980;2023-05-29T00:50:13;98581.88;;;19.15;100.00
12799;BME280;19250;42.646;26.980;2023-05-29T00:52:40;98576.50;;;19.33;100.00
12799;BME280;19250;42.646;26.980;2023-05-29T00:55:09;98575.75;;;19.26;100.00
12799;BME280;19250;42.646;26.980;2023-05-29T00:57:36;98562.75;;;19.35;100.00
12799;BME280;19250;42.646;26.980;2023-05-29T01:00:05;98576.66;;;19.20;100.00
12799;BME280;19250;42.646;26.980;2023-05-29T01:02:33;98567.91;;;18.75;100.00
12799;BME280;19250;42.646;26.980;2023-05-29T01:05:01;98578.31;;;18.96;100.00
12799;BME280;19250;42.646;26.980;2023-05-29T01:07:28;98572.22;;;18.83;100.00
12799;BME280;19250;42.646;26.980;2023-05-29T01:09:55;98572.88;;;18.78;100.00
12799;BME280;19250;42.646;26.980;2023-05-29T01:12:30;98568.78;;;18.94;100.00
12799;BME280;19250;42.646;26.980;2023-05-29T01:15:03;98571.34;;;18.89;100.00
12799;BME280;19250;42.646;26.980;2023-05-29T01:17:34;98570.50;;;18.88;100.00
12799;BME280;19250;42.646;26.980;2023-05-29T01:20:09;98573.78;;;19.15;100.00
12799;BME280;19250;42.646;26.980;2023-05-29T01:25:29;98571.25;;;19.38;100.00
12799;BME280;19250;42.646;26.980;2023-05-29T01:28:02;98565.94;;;19.50;100.00
12799;BME280;19250;42.646;26.980;2023-05-29T01:30:31;98572.75;;;19.34;100.00
12799;BME280;19250;42.646;26.980;2023-05-29T01:32:58;98581.34;;;19.49;100.00
12799;BME280;19250;42.646;26.980;2023-05-29T01:35:26;98586.56;;;19.26;100.00
12799;BME280;19250;42.646;26.980;2023-05-29T01:37:53;98586.13;;;19.29;100.00
12799;BME280;19250;42.646;26.980;2023-05-29T01:40:19;98583.53;;;19.16;100.00
12799;BME280;19250;42.646;26.980;2023-05-29T01:42:46;98584.88;;;19.07;100.00
12799;BME280;19250;42.646;26.980;2023-05-29T01:45:15;98584.34;;;18.98;100.00
12799;BME280;19250;42.646;26.980;2023-05-29T01:47:42;98584.72;;;19.02;100.00
12799;BME280;19250;42.646;26.980;2023-05-29T01:50:09;98591.34;;;19.24;100.00
12799;BME280;19250;42.646;26.980;2023-05-29T01:52:37;98592.03;;;19.20;100.00
12799;BME280;19250;42.646;26.980;2023-05-29T01:55:04;98604.28;;;19.22;100.00
12799;BME280;19250;42.646;26.980;2023-05-29T01:57:31;98600.56;;;19.41;100.00
12799;BME280;19250;42.646;26.980;2023-05-29T01:59:59;98599.44;;;19.49;100.00
12799;BME280;19250;42.646;26.980;2023-05-29T02:02:27;98591.09;;;19.32;100.00
12799;BME280;19250;42.646;26.980;2023-05-29T02:04:54;98587.69;;;19.19;100.00
12799;BME280;19250;42.646;26.980;2023-05-29T02:07:21;98594.00;;;19.31;100.00
12799;BME280;19250;42.646;26.980;2023-05-29T02:09:48;98600.97;;;19.20;100.00
12799;BME280;19250;42.646;26.980;2023-05-29T02:12:17;98601.63;;;19.40;100.00
12799;BME280;19250;42.646;26.980;2023-05-29T02:14:45;98605.09;;;19.47;100.00
12799;BME280;19250;42.646;26.980;2023-05-29T02:17:11;98607.19;;;19.21;100.00
12799;BME280;19250;42.646;26.980;2023-05-29T02:19:41;98595.44;;;19.51;100.00
12799;BME280;19250;42.646;26.980;2023-05-29T02:22:08;98601.97;;;19.80;100.00
12799;BME280;19250;42.646;26.980;2023-05-29T02:24:35;98603.69;;;19.93;100.00
12799;BME280;19250;42.646;26.980;2023-05-29T02:27:02;98590.66;;;20.01;100.00
12799;BME280;19250;42.646;26.980;2023-05-29T02:29:29;98590.28;;;19.98;100.00
12799;BME280;19250;42.646;26.980;2023-05-29T02:31:56;98590.75;;;19.95;100.00
12799;BME280;19250;42.646;26.980;2023-05-29T02:34:22;98582.75;;;19.70;100.00
12799;BME280;19250;42.646;26.980;2023-05-29T02:36:51;98589.56;;;19.73;100.00
12799;BME280;19250;42.646;26.980;2023-05-29T02:39:18;98584.31;;;19.78;100.00
12799;BME280;19250;42.646;26.980;2023-05-29T02:41:45;98579.03;;;19.83;100.00
12799;BME280;19250;42.646;26.980;2023-05-29T02:44:11;98586.94;;;19.84;100.00
12799;BME280;19250;42.646;26.980;2023-05-29T02:46:38;98592.56;;;19.83;100.00
12799;BME280;19250;42.646;26.980;2023-05-29T02:49:05;98593.50;;;19.77;100.00
12799;BME280;19250;42.646;26.980;2023-05-29T02:51:32;98599.44;;;19.67;100.00
12799;BME280;19250;42.646;26.980;2023-05-29T02:54:00;98596.13;;;19.65;100.00
12799;BME280;19250;42.646;26.980;2023-05-29T02:56:27;98602.13;;;19.85;100.00
12799;BME280;19250;42.646;26.980;2023-05-29T02:58:54;98601.56;;;19.95;100.00
12799;BME280;19250;42.646;26.980;2023-05-29T03:01:21;98612.69;;;20.05;100.00
12799;BME280;19250;42.646;26.980;2023-05-29T03:03:48;98615.16;;;20.06;100.00
12799;BME280;19250;42.646;26.980;2023-05-29T03:06:14;98612.53;;;20.18;100.00
12799;BME280;19250;42.646;26.980;2023-05-29T03:08:43;98620.44;;;20.01;100.00
12799;BME280;19250;42.646;26.980;2023-05-29T03:11:14;98623.91;;;20.08;100.00
12799;BME280;19250;42.646;26.980;2023-05-29T03:13:41;98626.53;;;19.97;100.00
12799;BME280;19250;42.646;26.980;2023-05-29T03:16:08;98619.78;;;19.88;100.00
12799;BME280;19250;42.646;26.980;2023-05-29T03:18:35;98622.56;;;19.63;100.00
12799;BME280;19250;42.646;26.980;2023-05-29T03:21:02;98615.81;;;19.72;100.00
12799;BME280;19250;42.646;26.980;2023-05-29T03:23:29;98619.03;;;19.99;100.00
12799;BME280;19250;42.646;26.980;2023-05-29T03:25:56;98624.00;;;19.84;100.00
12799;BME280;19250;42.646;26.980;2023-05-29T03:28:25;98624.13;;;19.89;100.00
12799;BME280;19250;42.646;26.980;2023-05-29T03:30:52;98621.84;;;20.04;100.00
12799;BME280;19250;42.646;26.980;2023-05-29T03:33:19;98627.44;;;19.91;100.00
12799;BME280;19250;42.646;26.980;2023-05-29T03:35:46;98637.56;;;20.14;100.00
12799;BME280;19250;42.646;26.980;2023-05-29T03:38:12;98632.94;;;20.02;100.00
12799;BME280;19250;42.646;26.980;2023-05-29T03:40:39;98631.22;;;19.90;100.00
12799;BME280;19250;42.646;26.980;2023-05-29T03:43:06;98639.28;;;19.78;100.00
12799;BME280;19250;42.646;26.980;2023-05-29T03:45:34;98645.66;;;19.84;100.00
12799;BME280;19250;42.646;26.980;2023-05-29T03:48:01;98648.28;;;19.90;100.00
12799;BME280;19250;42.646;26.980;2023-05-29T03:50:28;98638.56;;;20.01;100.00
12799;BME280;19250;42.646;26.980;2023-05-29T03:52:55;98643.22;;;19.94;100.00
12799;BME280;19250;42.646;26.980;2023-05-29T03:55:22;98640.31;;;20.25;100.00
12799;BME280;19250;42.646;26.980;2023-05-29T03:57:49;98637.13;;;20.46;100.00
12799;BME280;19250;42.646;26.980;2023-05-29T04:00:16;98636.44;;;20.51;100.00
12799;BME280;19250;42.646;26.980;2023-05-29T04:02:44;98635.53;;;20.69;100.00
12799;BME280;19250;42.646;26.980;2023-05-29T04:05:11;98632.94;;;20.74;100.00
12799;BME280;19250;42.646;26.980;2023-05-29T04:07:38;98624.50;;;20.70;100.00
12799;BME280;19250;42.646;26.980;2023-05-29T04:10:05;98633.41;;;20.71;100.00
12799;BME280;19250;42.646;26.980;2023-05-29T04:12:33;98628.25;;;20.81;100.00
12799;BME280;19250;42.646;26.980;2023-05-29T04:15:00;98625.19;;;20.89;100.00
12799;BME280;19250;42.646;26.980;2023-05-29T04:17:26;98627.91;;;20.89;100.00
12799;BME280;19250;42.646;26.980;2023-05-29T04:19:55;98629.06;;;20.70;100.00
12799;BME280;19250;42.646;26.980;2023-05-29T04:22:21;98631.06;;;20.62;100.00
12799;BME280;19250;42.646;26.980;2023-05-29T04:24:48;98627.75;;;20.60;100.00
12799;BME280;19250;42.646;26.980;2023-05-29T04:27:15;98625.38;;;20.64;100.00
12799;BME280;19250;42.646;26.980;2023-05-29T04:29:42;98626.59;;;20.68;100.00
12799;BME280;19250;42.646;26.980;2023-05-29T04:32:09;98628.31;;;20.51;100.00
12799;BME280;19250;42.646;26.980;2023-05-29T04:34:38;98629.66;;;20.72;100.00
12799;BME280;19250;42.646;26.980;2023-05-29T04:37:06;98631.81;;;20.81;100.00
12799;BME280;19250;42.646;26.980;2023-05-29T04:39:33;98633.09;;;20.79;100.00
12799;BME280;19250;42.646;26.980;2023-05-29T04:42:00;98642.00;;;20.68;100.00
12799;BME280;19250;42.646;26.980;2023-05-29T04:44:27;98630.38;;;20.79;100.00
12799;BME280;19250;42.646;26.980;2023-05-29T04:46:56;98632.25;;;20.67;100.00
12799;BME280;19250;42.646;26.980;2023-05-29T04:49:23;98636.84;;;20.78;100.00
12799;BME280;19250;42.646;26.980;2023-05-29T04:51:50;98643.69;;;20.92;100.00
12799;BME280;19250;42.646;26.980;2023-05-29T04:54:21;98638.63;;;20.84;100.00
12799;BME280;19250;42.646;26.980;2023-05-29T04:56:48;98644.59;;;21.27;100.00
12799;BME280;19250;42.646;26.980;2023-05-29T04:59:15;98639.00;;;20.99;100.00
12799;BME280;19250;42.646;26.980;2023-05-29T05:01:42;98644.81;;;21.14;100.00
12799;BME280;19250;42.646;26.980;2023-05-29T05:04:10;98647.44;;;21.55;100.00
12799;BME280;19250;42.646;26.980;2023-05-29T05:06:37;98648.69;;;21.76;100.00
12799;BME280;19250;42.646;26.980;2023-05-29T05:09:04;98640.00;;;21.51;100.00
12799;BME280;19250;42.646;26.980;2023-05-29T05:11:32;98647.63;;;21.65;100.00
12799;BME280;19250;42.646;26.980;2023-05-29T05:13:59;98647.09;;;21.40;100.00
12799;BME280;19250;42.646;26.980;2023-05-29T05:16:26;98649.53;;;21.77;100.00
12799;BME280;19250;42.646;26.980;2023-05-29T05:18:53;98638.06;;;21.86;100.00
12799;BME280;19250;42.646;26.980;2023-05-29T05:21:20;98638.22;;;22.08;100.00
12799;BME280;19250;42.646;26.980;2023-05-29T05:23:46;98626.72;;;22.29;100.00
12799;BME280;19250;42.646;26.980;2023-05-29T05:26:13;98640.06;;;22.31;100.00
12799;BME280;19250;42.646;26.980;2023-05-29T05:28:41;98630.22;;;22.41;100.00
12799;BME280;19250;42.646;26.980;2023-05-29T05:31:08;98632.72;;;22.03;100.00
12799;BME280;19250;42.646;26.980;2023-05-29T05:33:36;98635.88;;;22.11;100.00
12799;BME280;19250;42.646;26.980;2023-05-29T05:36:03;98639.00;;;22.20;100.00
12799;BME280;19250;42.646;26.980;2023-05-29T05:38:30;98634.75;;;22.24;100.00
12799;BME280;19250;42.646;26.980;2023-05-29T05:40:57;98638.84;;;21.87;100.00
12799;BME280;19250;42.646;26.980;2023-05-29T05:43:24;98644.00;;;22.23;100.00
12799;BME280;19250;42.646;26.980;2023-05-29T05:45:53;98637.69;;;22.34;100.00
12799;BME280;19250;42.646;26.980;2023-05-29T05:48:20;98648.97;;;22.43;100.00
12799;BME280;19250;42.646;26.980;2023-05-29T05:50:47;98647.81;;;22.67;100.00
12799;BME280;19250;42.646;26.980;2023-05-29T05:53:14;98655.59;;;22.47;100.00
12799;BME280;19250;42.646;26.980;2023-05-29T05:55:42;98651.94;;;22.41;100.00
12799;BME280;19250;42.646;26.980;2023-05-29T05:58:09;98656.69;;;22.34;100.00
12799;BME280;19250;42.646;26.980;2023-05-29T06:00:35;98655.59;;;22.47;100.00
12799;BME280;19250;42.646;26.980;2023-05-29T06:03:04;98660.94;;;22.58;100.00
12799;BME280;19250;42.646;26.980;2023-05-29T06:05:31;98670.56;;;22.49;100.00
12799;BME280;19250;42.646;26.980;2023-05-29T06:07:59;98659.91;;;21.80;100.00
12799;BME280;19250;42.646;26.980;2023-05-29T06:10:26;98671.59;;;21.57;100.00
12799;BME280;19250;42.646;26.980;2023-05-29T06:12:53;98677.81;;;21.81;100.00
12799;BME280;19250;42.646;26.980;2023-05-29T06:15:20;98677.50;;;21.77;100.00
12799;BME280;19250;42.646;26.980;2023-05-29T06:17:47;98682.28;;;22.10;100.00
12799;BME280;19250;42.646;26.980;2023-05-29T06:20:15;98677.72;;;21.76;100.00
12799;BME280;19250;42.646;26.980;2023-05-29T06:22:42;98675.28;;;22.14;100.00
12799;BME280;19250;42.646;26.980;2023-05-29T06:25:09;98691.28;;;21.99;100.00
12799;BME280;19250;42.646;26.980;2023-05-29T06:27:36;98683.03;;;22.34;100.00
12799;BME280;19250;42.646;26.980;2023-05-29T06:30:03;98684.81;;;21.88;100.00
12799;BME280;19250;42.646;26.980;2023-05-29T06:32:30;98676.66;;;21.77;100.00
12799;BME280;19250;42.646;26.980;2023-05-29T06:34:57;98679.13;;;21.78;100.00
12799;BME280;19250;42.646;26.980;2023-05-29T06:37:26;98684.31;;;22.03;100.00
12799;BME280;19250;42.646;26.980;2023-05-29T06:39:52;98680.22;;;21.89;100.00
12799;BME280;19250;42.646;26.980;2023-05-29T06:42:19;98673.56;;;21.85;100.00
12799;BME280;19250;42.646;26.980;2023-05-29T06:44:46;98678.44;;;21.48;100.00
12799;BME280;19250;42.646;26.980;2023-05-29T06:47:13;98672.19;;;21.47;100.00
12799;BME280;19250;42.646;26.980;2023-05-29T06:49:40;98673.13;;;21.41;100.00
12799;BME280;19250;42.646;26.980;2023-05-29T06:52:07;98677.50;;;21.54;100.00
12799;BME280;19250;42.646;26.980;2023-05-29T06:54:35;98686.56;;;21.83;100.00
12799;BME280;19250;42.646;26.980;2023-05-29T06:57:02;98687.50;;;22.00;100.00
12799;BME280;19250;42.646;26.980;2023-05-29T06:59:29;98693.72;;;22.12;100.00
12799;BME280;19250;42.646;26.980;2023-05-29T07:01:56;98691.28;;;21.99;100.00
12799;BME280;19250;42.646;26.980;2023-05-29T07:04:23;98681.72;;;22.36;100.00
12799;BME280;19250;42.646;26.980;2023-05-29T07:06:49;98689.63;;;22.77;100.00
12799;BME280;19250;42.646;26.980;2023-05-29T07:09:16;98687.31;;;22.58;100.00
12799;BME280;19250;42.646;26.980;2023-05-29T07:11:45;98690.94;;;22.75;100.00
12799;BME280;19250;42.646;26.980;2023-05-29T07:14:11;98697.78;;;22.77;100.00
12799;BME280;19250;42.646;26.980;2023-05-29T07:16:39;98689.63;;;22.77;100.00
12799;BME280;19250;42.646;26.980;2023-05-29T07:19:06;98701.34;;;22.95;100.00
12799;BME280;19250;42.646;26.980;2023-05-29T07:21:33;98698.75;;;22.60;100.00
12799;BME280;19250;42.646;26.980;2023-05-29T07:26:27;98698.31;;;22.23;100.00
12799;BME280;19250;42.646;26.980;2023-05-29T07:28:57;98700.69;;;22.08;100.00
12799;BME280;19250;42.646;26.980;2023-05-29T07:31:24;98704.97;;;22.04;100.00
12799;BME280;19250;42.646;26.980;2023-05-29T07:33:51;98708.06;;;21.73;100.00
12799;BME280;19250;42.646;26.980;2023-05-29T07:36:18;98698.00;;;21.50;100.00
12799;BME280;19250;42.646;26.980;2023-05-29T07:38:45;98704.66;;;21.89;100.00
12799;BME280;19250;42.646;26.980;2023-05-29T07:41:11;98705.34;;;21.73;100.00
12799;BME280;19250;42.646;26.980;2023-05-29T07:43:38;98709.25;;;21.77;100.00
12799;BME280;19250;42.646;26.980;2023-05-29T07:46:07;98702.75;;;21.66;100.00
12799;BME280;19250;42.646;26.980;2023-05-29T07:48:34;98710.91;;;21.54;100.00
12799;BME280;19250;42.646;26.980;2023-05-29T07:51:00;98718.44;;;21.52;100.00
12799;BME280;19250;42.646;26.980;2023-05-29T07:53:27;98714.66;;;21.30;100.00
12799;BME280;19250;42.646;26.980;2023-05-29T07:55:55;98721.00;;;21.24;100.00
12799;BME280;19250;42.646;26.980;2023-05-29T07:58:21;98720.44;;;21.22;100.00
12799;BME280;19250;42.646;26.980;2023-05-29T08:00:48;98714.88;;;21.29;100.00
12799;BME280;19250;42.646;26.980;2023-05-29T08:03:17;98722.91;;;21.35;100.00
12799;BME280;19250;42.646;26.980;2023-05-29T08:05:44;98727.13;;;21.20;100.00
12799;BME280;19250;42.646;26.980;2023-05-29T08:08:11;98725.28;;;20.90;100.00
12799;BME280;19250;42.646;26.980;2023-05-29T08:10:39;98726.22;;;20.96;100.00
12799;BME280;19250;42.646;26.980;2023-05-29T08:13:05;98720.06;;;21.19;100.00
12799;BME280;19250;42.646;26.980;2023-05-29T08:15:32;98727.88;;;21.50;100.00
12799;BME280;19250;42.646;26.980;2023-05-29T08:17:59;98735.06;;;21.56;100.00
12799;BME280;19250;42.646;26.980;2023-05-29T08:20:28;98730.56;;;21.27;100.00
12799;BME280;19250;42.646;26.980;2023-05-29T08:22:55;98732.34;;;21.44;100.00
12799;BME280;19250;42.646;26.980;2023-05-29T08:25:22;98726.69;;;21.34;100.00
12799;BME280;19250;42.646;26.980;2023-05-29T08:27:48;98726.44;;;21.24;100.00
12799;BME280;19250;42.646;26.980;2023-05-29T08:30:15;98726.75;;;21.16;100.00
12799;BME280;19250;42.646;26.980;2023-05-29T08:32:42;98725.41;;;20.95;100.00
12799;BME280;19250;42.646;26.980;2023-05-29T08:35:09;98726.56;;;20.88;100.00
12799;BME280;19250;42.646;26.980;2023-05-29T08:37:37;98724.91;;;20.87;100.00
12799;BME280;19250;42.646;26.980;2023-05-29T08:40:05;98722.44;;;21.27;100.00
12799;BME280;19250;42.646;26.980;2023-05-29T08:42:36;98715.59;;;21.12;100.00
12799;BME280;19250;42.646;26.980;2023-05-29T08:45:06;98719.47;;;20.87;100.00
12799;BME280;19250;42.646;26.980;2023-05-29T08:47:33;98714.91;;;20.87;100.00
12799;BME280;19250;42.646;26.980;2023-05-29T08:50:00;98718.63;;;21.16;100.00
12799;BME280;19250;42.646;26.980;2023-05-29T08:52:27;98721.16;;;20.88;100.00
12799;BME280;19250;42.646;26.980;2023-05-29T08:54:57;98713.97;;;20.93;100.00
12799;BME280;19250;42.646;26.980;2023-05-29T08:57:27;98718.66;;;20.86;100.00
12799;BME280;19250;42.646;26.980;2023-05-29T08:59:55;98706.69;;;21.05;100.00
12799;BME280;19250;42.646;26.980;2023-05-29T09:02:22;98708.66;;;20.87;100.00
12799;BME280;19250;42.646;26.980;2023-05-29T09:04:49;98706.31;;;21.02;100.00
12799;BME280;19250;42.646;26.980;2023-05-29T09:07:18;98703.28;;;21.10;100.00
12799;BME280;19250;42.646;26.980;2023-05-29T09:09:46;98708.19;;;21.89;100.00
12799;BME280;19250;42.646;26.980;2023-05-29T09:12:14;98704.84;;;22.50;100.00
12799;BME280;19250;42.646;26.980;2023-05-29T09:14:42;98704.63;;;22.40;100.00
12799;BME280;19250;42.646;26.980;2023-05-29T09:17:10;98706.84;;;22.83;100.00
12799;BME280;19250;42.646;26.980;2023-05-29T09:19:37;98715.34;;;22.87;100.00
12799;BME280;19250;42.646;26.980;2023-05-29T09:22:06;98708.69;;;22.54;100.00
12799;BME280;19250;42.646;26.980;2023-05-29T09:24:33;98709.38;;;22.73;100.00
12799;BME280;19250;42.646;26.980;2023-05-29T09:27:01;98718.31;;;22.45;100.00
12799;BME280;19250;42.646;26.980;2023-05-29T09:29:31;98707.97;;;22.31;100.00
12799;BME280;19250;42.646;26.980;2023-05-29T09:31:59;98718.44;;;22.78;100.00
12799;BME280;19250;42.646;26.980;2023-05-29T09:34:26;98708.13;;;22.52;100.00
12799;BME280;19250;42.646;26.980;2023-05-29T09:36:53;98700.66;;;22.59;100.00
12799;BME280;19250;42.646;26.980;2023-05-29T09:39:28;98704.34;;;22.53;100.00
12799;BME280;19250;42.646;26.980;2023-05-29T09:41:55;98712.97;;;22.22;100.00
12799;BME280;19250;42.646;26.980;2023-05-29T09:44:21;98701.81;;;22.35;100.00
12799;BME280;19250;42.646;26.980;2023-05-29T09:46:50;98700.47;;;22.49;100.00
12799;BME280;19250;42.646;26.980;2023-05-29T09:49:17;98700.53;;;22.66;100.00
12799;BME280;19250;42.646;26.980;2023-05-29T09:51:49;98703.09;;;22.72;100.00
12799;BME280;19250;42.646;26.980;2023-05-29T09:54:19;98706.75;;;22.78;100.00
12799;BME280;19250;42.646;26.980;2023-05-29T09:56:46;98710.94;;;22.57;100.00
12799;BME280;19250;42.646;26.980;2023-05-29T09:59:14;98707.91;;;22.82;100.00
12799;BME280;19250;42.646;26.980;2023-05-29T10:01:43;98697.13;;;22.59;100.00
12799;BME280;19250;42.646;26.980;2023-05-29T10:04:12;98695.81;;;22.61;100.00
12799;BME280;19250;42.646;26.980;2023-05-29T10:06:41;98701.81;;;22.35;100.00
12799;BME280;19250;42.646;26.980;2023-05-29T10:09:08;98691.75;;;22.36;100.00
12799;BME280;19250;42.646;26.980;2023-05-29T10:11:37;98687.41;;;22.35;100.00
12799;BME280;19250;42.646;26.980;2023-05-29T10:14:04;98692.44;;;22.03;100.00
12799;BME280;19250;42.646;26.980;2023-05-29T10:16:32;98695.44;;;22.01;100.00
12799;BME280;19250;42.646;26.980;2023-05-29T10:19:02;98685.53;;;22.35;100.00
12799;BME280;19250;42.646;26.980;2023-05-29T10:21:35;98685.41;;;22.58;100.00
12799;BME280;19250;42.646;26.980;2023-05-29T10:24:04;98684.19;;;22.77;100.00
12799;BME280;19250;42.646;26.980;2023-05-29T10:26:34;98680.13;;;22.80;100.00
12799;BME280;19250;42.646;26.980;2023-05-29T10:29:03;98678.34;;;22.86;100.00
12799;BME280;19250;42.646;26.980;2023-05-29T10:31:33;98676.59;;;22.80;100.00
12799;BME280;19250;42.646;26.980;2023-05-29T10:34:02;98673.47;;;23.38;100.00
12799;BME280;19250;42.646;26.980;2023-05-29T10:36:37;98685.75;;;24.12;100.00
12799;BME280;19250;42.646;26.980;2023-05-29T10:39:06;98688.44;;;23.90;100.00
12799;BME280;19250;42.646;26.980;2023-05-29T10:41:34;98688.34;;;23.63;100.00
12799;BME280;19250;42.646;26.980;2023-05-29T10:44:37;98678.91;;;23.21;100.00
12799;BME280;19250;42.646;26.980;2023-05-29T10:47:01;98685.44;;;23.53;100.00
12799;BME280;19250;42.646;26.980;2023-05-29T10:49:28;98689.28;;;23.24;100.00
12799;BME280;19250;42.646;26.980;2023-05-29T10:51:57;98682.22;;;23.06;100.00
12799;BME280;19250;42.646;26.980;2023-05-29T10:54:24;98683.53;;;23.04;100.00
12799;BME280;19250;42.646;26.980;2023-05-29T10:56:52;98685.16;;;22.88;100.00
12799;BME280;19250;42.646;26.980;2023-05-29T10:59:19;98691.47;;;22.49;100.00
12799;BME280;19250;42.646;26.980;2023-05-29T11:01:46;98688.53;;;22.50;100.00
12799;BME280;19250;42.646;26.980;2023-05-29T11:04:25;98686.78;;;22.72;100.00
12799;BME280;19250;42.646;26.980;2023-05-29T11:06:53;98676.88;;;22.66;100.00
12799;BME280;19250;42.646;26.980;2023-05-29T11:09:28;98678.13;;;23.20;100.00
12799;BME280;19250;42.646;26.980;2023-05-29T11:12:11;98680.88;;;23.09;99.42
12799;BME280;19250;42.646;26.980;2023-05-29T11:14:44;98682.22;;;23.40;96.90
12799;BME280;19250;42.646;26.980;2023-05-29T11:19:54;98685.94;;;24.80;87.29
12799;BME280;19250;42.646;26.980;2023-05-29T11:22:23;98678.47;;;24.92;82.16
12799;BME280;19250;42.646;26.980;2023-05-29T11:24:53;98673.00;;;25.24;78.78
12799;BME280;19250;42.646;26.980;2023-05-29T11:27:23;98683.25;;;25.07;80.25
12799;BME280;19250;42.646;26.980;2023-05-29T11:29:50;98680.72;;;25.69;72.86
12799;BME280;19250;42.646;26.980;2023-05-29T11:32:19;98673.81;;;26.09;73.30
12799;BME280;19250;42.646;26.980;2023-05-29T11:34:48;98676.31;;;27.23;62.54
12799;BME280;19250;42.646;26.980;2023-05-29T11:37:16;98672.78;;;27.42;55.27
12799;BME280;19250;42.646;26.980;2023-05-29T11:39:43;98663.19;;;26.99;57.75
12799;BME280;19250;42.646;26.980;2023-05-29T11:42:11;98685.00;;;25.55;64.11
12799;BME280;19250;42.646;26.980;2023-05-29T11:44:39;98683.81;;;25.41;66.04
12799;BME280;19250;42.646;26.980;2023-05-29T11:47:07;98694.34;;;25.64;65.70
12799;BME280;19250;42.646;26.980;2023-05-29T11:49:35;98688.56;;;26.75;58.27
12799;BME280;19250;42.646;26.980;2023-05-29T11:52:07;98688.28;;;27.92;54.17
12799;BME280;19250;42.646;26.980;2023-05-29T11:54:35;98682.06;;;27.41;54.43
12799;BME280;19250;42.646;26.980;2023-05-29T11:57:03;98687.25;;;26.87;58.92
12799;BME280;19250;42.646;26.980;2023-05-29T11:59:33;98682.56;;;26.78;58.83
12799;BME280;19250;42.646;26.980;2023-05-29T12:02:02;98696.03;;;27.20;56.54
12799;BME280;19250;42.646;26.980;2023-05-29T12:04:29;98698.50;;;27.62;54.06
12799;BME280;19250;42.646;26.980;2023-05-29T12:06:57;98680.34;;;26.60;59.27
12799;BME280;19250;42.646;26.980;2023-05-29T12:09:27;98679.91;;;26.16;64.13
12799;BME280;19250;42.646;26.980;2023-05-29T12:12:00;98682.53;;;26.68;61.31
12799;BME280;19250;42.646;26.980;2023-05-29T12:14:28;98662.44;;;26.27;62.67
12799;BME280;19250;42.646;26.980;2023-05-29T12:16:57;98680.03;;;25.15;69.97
12799;BME280;19250;42.646;26.980;2023-05-29T12:19:24;98686.22;;;25.06;72.84
12799;BME280;19250;42.646;26.980;2023-05-29T12:21:51;98683.72;;;24.99;73.72
12799;BME280;19250;42.646;26.980;2023-05-29T12:24:19;98666.34;;;24.57;76.53
12799;BME280;19250;42.646;26.980;2023-05-29T12:26:46;98682.53;;;24.63;77.74
12799;BME280;19250;42.646;26.980;2023-05-29T12:29:15;98675.41;;;24.62;79.84
12799;BME280;19250;42.646;26.980;2023-05-29T12:31:42;98673.56;;;25.58;73.42
12799;BME280;19250;42.646;26.980;2023-05-29T12:34:11;98682.38;;;25.70;67.76
12799;BME280;19250;42.646;26.980;2023-05-29T12:36:40;98682.44;;;25.43;70.35
12799;BME280;19250;42.646;26.980;2023-05-29T12:39:08;98677.28;;;24.83;76.89
12799;BME280;19250;42.646;26.980;2023-05-29T12:41:37;98678.69;;;25.18;74.59
12799;BME280;19250;42.646;26.980;2023-05-29T12:44:05;98685.09;;;25.02;75.55
12799;BME280;19250;42.646;26.980;2023-05-29T12:46:38;98675.06;;;24.54;80.43
12799;BME280;19250;42.646;26.980;2023-05-29T12:49:13;98681.50;;;24.69;79.21
12799;BME280;19250;42.646;26.980;2023-05-29T12:51:41;98675.47;;;24.89;78.05